HEAX

El Nouzha Airport

Alexandria, Egypt
METAR HEAX 181300Z 28010KT 9999 SCT020 17/09 Q1022 NOSIG
Observed Flight Rules
Jan-18 @ 13:00 UTC (47 minutes ago) Visual Flight Rules
Wind Visibility Clouds
280° at 10 knots 10,000+ meters
  • Scattered at 2,000' AGL
Temperatures Readings
Current 17°C / 63°F
Dewpoint 9°C / 48°F
Humidity 59%
Altimeter 30.18" Hg
Pressure 1021.92 hPa
Elevation 7
METAR HEAX 181300Z 28010KT 9999 SCT020 17/09 Q1022 NOSIG
Observed Flight Rules
Jan-18 @ 13:00 UTC
(47 minutes ago)
VFR
Wind Visibility
280° at 10 knots 10,000+ meters
Clouds
  • Scattered at 2,000' AGL
Temperature Dewpoint
17°C / 63°F 9°C / 48°F
Humidity Altimeter Pressure
59% 30.18" Hg 1021.92 hPa